sensor_id;sensor_type;location;lat;lon;timestamp;pressure;altitude;pressure_sealevel;temperature
19644;BMP180;9970;-36.854;174.870;2022-09-09T00:00:31;102319.00;;;16.50
19644;BMP180;9970;-36.854;174.870;2022-09-09T00:03:19;102325.00;;;16.50
19644;BMP180;9970;-36.854;174.870;2022-09-09T00:09:08;102311.00;;;16.40
19644;BMP180;9970;-36.854;174.870;2022-09-09T00:11:50;102305.00;;;16.40
19644;BMP180;9970;-36.854;174.870;2022-09-09T00:15:02;102305.00;;;16.50
19644;BMP180;9970;-36.854;174.870;2022-09-09T00:17:43;102305.00;;;16.50
19644;BMP180;9970;-36.854;174.870;2022-09-09T00:20:30;102294.00;;;16.40
19644;BMP180;9970;-36.854;174.870;2022-09-09T00:23:18;102283.00;;;16.40
19644;BMP180;9970;-36.854;174.870;2022-09-09T00:25:56;102283.00;;;16.40
19644;BMP180;9970;-36.854;174.870;2022-09-09T00:28:28;102280.00;;;16.40
19644;BMP180;9970;-36.854;174.870;2022-09-09T00:31:12;102285.00;;;16.50
19644;BMP180;9970;-36.854;174.870;2022-09-09T00:33:48;102286.00;;;16.50
19644;BMP180;9970;-36.854;174.870;2022-09-09T00:36:23;102283.00;;;16.50
19644;BMP180;9970;-36.854;174.870;2022-09-09T00:39:01;102279.00;;;16.50
19644;BMP180;9970;-36.854;174.870;2022-09-09T00:41:46;102279.00;;;16.60
19644;BMP180;9970;-36.854;174.870;2022-09-09T00:52:46;102276.00;;;16.60
19644;BMP180;9970;-36.854;174.870;2022-09-09T00:55:26;102258.00;;;16.50
19644;BMP180;9970;-36.854;174.870;2022-09-09T00:57:57;102263.00;;;16.50
19644;BMP180;9970;-36.854;174.870;2022-09-09T01:00:37;102262.00;;;16.60
19644;BMP180;9970;-36.854;174.870;2022-09-09T01:06:00;102259.00;;;16.50
19644;BMP180;9970;-36.854;174.870;2022-09-09T01:08:36;102255.00;;;16.50
19644;BMP180;9970;-36.854;174.870;2022-09-09T01:11:16;102254.00;;;16.50
19644;BMP180;9970;-36.854;174.870;2022-09-09T01:13:43;102249.00;;;16.60
19644;BMP180;9970;-36.854;174.870;2022-09-09T01:16:18;102244.00;;;16.60
19644;BMP180;9970;-36.854;174.870;2022-09-09T01:18:53;102242.00;;;16.60
19644;BMP180;9970;-36.854;174.870;2022-09-09T01:21:42;102237.00;;;16.60
19644;BMP180;9970;-36.854;174.870;2022-09-09T01:24:31;102233.00;;;16.60
19644;BMP180;9970;-36.854;174.870;2022-09-09T01:27:02;102220.00;;;16.50
19644;BMP180;9970;-36.854;174.870;2022-09-09T01:29:37;102223.00;;;16.50
19644;BMP180;9970;-36.854;174.870;2022-09-09T01:32:38;102219.00;;;16.50
19644;BMP180;9970;-36.854;174.870;2022-09-09T01:38:03;102199.00;;;16.50
19644;BMP180;9970;-36.854;174.870;2022-09-09T01:40:35;102200.00;;;16.50
19644;BMP180;9970;-36.854;174.870;2022-09-09T01:43:09;102204.00;;;16.50
19644;BMP180;9970;-36.854;174.870;2022-09-09T01:45:43;102206.00;;;16.50
19644;BMP180;9970;-36.854;174.870;2022-09-09T01:48:17;102200.00;;;16.50
19644;BMP180;9970;-36.854;174.870;2022-09-09T01:51:07;102204.00;;;16.50
19644;BMP180;9970;-36.854;174.870;2022-09-09T01:53:57;102189.00;;;16.40
19644;BMP180;9970;-36.854;174.870;2022-09-09T01:57:07;102195.00;;;16.30
19644;BMP180;9970;-36.854;174.870;2022-09-09T02:00:00;102191.00;;;16.30
19644;BMP180;9970;-36.854;174.870;2022-09-09T02:05:44;102181.00;;;16.20
19644;BMP180;9970;-36.854;174.870;2022-09-09T02:08:25;102174.00;;;16.20
19644;BMP180;9970;-36.854;174.870;2022-09-09T02:11:17;102176.00;;;16.20
19644;BMP180;9970;-36.854;174.870;2022-09-09T02:13:45;102177.00;;;16.20
19644;BMP180;9970;-36.854;174.870;2022-09-09T02:19:25;102165.00;;;16.20
19644;BMP180;9970;-36.854;174.870;2022-09-09T02:21:59;102155.00;;;16.20
19644;BMP180;9970;-36.854;174.870;2022-09-09T02:24:34;102150.00;;;16.20
19644;BMP180;9970;-36.854;174.870;2022-09-09T02:27:07;102149.00;;;16.20
19644;BMP180;9970;-36.854;174.870;2022-09-09T02:29:42;102154.00;;;16.20
19644;BMP180;9970;-36.854;174.870;2022-09-09T02:32:18;102151.00;;;16.20
19644;BMP180;9970;-36.854;174.870;2022-09-09T02:34:53;102150.00;;;16.20
19644;BMP180;9970;-36.854;174.870;2022-09-09T02:37:27;102151.00;;;16.20
19644;BMP180;9970;-36.854;174.870;2022-09-09T02:40:01;102150.00;;;16.20
19644;BMP180;9970;-36.854;174.870;2022-09-09T02:42:39;102149.00;;;16.20
19644;BMP180;9970;-36.854;174.870;2022-09-09T02:45:14;102151.00;;;16.20
19644;BMP180;9970;-36.854;174.870;2022-09-09T02:53:43;102146.00;;;16.10
19644;BMP180;9970;-36.854;174.870;2022-09-09T02:56:20;102141.00;;;16.00
19644;BMP180;9970;-36.854;174.870;2022-09-09T02:58:53;102143.00;;;16.00
19644;BMP180;9970;-36.854;174.870;2022-09-09T03:01:25;102142.00;;;16.00
19644;BMP180;9970;-36.854;174.870;2022-09-09T03:03:59;102134.00;;;16.00
19644;BMP180;9970;-36.854;174.870;2022-09-09T03:06:31;102134.00;;;16.00
19644;BMP180;9970;-36.854;174.870;2022-09-09T03:09:04;102135.00;;;16.00
19644;BMP180;9970;-36.854;174.870;2022-09-09T03:11:38;102122.00;;;16.00
19644;BMP180;9970;-36.854;174.870;2022-09-09T03:14:11;102130.00;;;16.00
19644;BMP180;9970;-36.854;174.870;2022-09-09T03:16:44;102127.00;;;15.90
19644;BMP180;9970;-36.854;174.870;2022-09-09T03:19:17;102131.00;;;15.90
19644;BMP180;9970;-36.854;174.870;2022-09-09T03:21:50;102134.00;;;15.90
19644;BMP180;9970;-36.854;174.870;2022-09-09T03:24:23;102131.00;;;15.90
19644;BMP180;9970;-36.854;174.870;2022-09-09T03:26:55;102135.00;;;15.90
19644;BMP180;9970;-36.854;174.870;2022-09-09T03:29:28;102143.00;;;15.90
19644;BMP180;9970;-36.854;174.870;2022-09-09T03:32:04;102147.00;;;15.80
19644;BMP180;9970;-36.854;174.870;2022-09-09T03:34:37;102148.00;;;15.80
19644;BMP180;9970;-36.854;174.870;2022-09-09T03:37:11;102143.00;;;15.80
19644;BMP180;9970;-36.854;174.870;2022-09-09T03:39:44;102128.00;;;15.80
19644;BMP180;9970;-36.854;174.870;2022-09-09T03:42:17;102139.00;;;15.80
19644;BMP180;9970;-36.854;174.870;2022-09-09T03:44:50;102134.00;;;15.70
19644;BMP180;9970;-36.854;174.870;2022-09-09T03:47:23;102133.00;;;15.70
19644;BMP180;9970;-36.854;174.870;2022-09-09T03:49:56;102134.00;;;15.70
19644;BMP180;9970;-36.854;174.870;2022-09-09T03:52:29;102132.00;;;15.70
19644;BMP180;9970;-36.854;174.870;2022-09-09T03:55:02;102138.00;;;15.70
19644;BMP180;9970;-36.854;174.870;2022-09-09T03:57:36;102135.00;;;15.70
19644;BMP180;9970;-36.854;174.870;2022-09-09T04:00:12;102139.00;;;15.60
19644;BMP180;9970;-36.854;174.870;2022-09-09T04:02:45;102139.00;;;15.60
19644;BMP180;9970;-36.854;174.870;2022-09-09T04:05:18;102135.00;;;15.60
19644;BMP180;9970;-36.854;174.870;2022-09-09T04:07:51;102136.00;;;15.60
19644;BMP180;9970;-36.854;174.870;2022-09-09T04:10:23;102135.00;;;15.60
19644;BMP180;9970;-36.854;174.870;2022-09-09T04:12:56;102130.00;;;15.60
19644;BMP180;9970;-36.854;174.870;2022-09-09T04:15:30;102127.00;;;15.60
19644;BMP180;9970;-36.854;174.870;2022-09-09T04:18:03;102134.00;;;15.60
19644;BMP180;9970;-36.854;174.870;2022-09-09T04:20:36;102136.00;;;15.60
19644;BMP180;9970;-36.854;174.870;2022-09-09T04:23:09;102138.00;;;15.50
19644;BMP180;9970;-36.854;174.870;2022-09-09T04:25:45;102130.00;;;15.50
19644;BMP180;9970;-36.854;174.870;2022-09-09T04:28:27;102132.00;;;15.50
19644;BMP180;9970;-36.854;174.870;2022-09-09T04:31:07;102133.00;;;15.50
19644;BMP180;9970;-36.854;174.870;2022-09-09T04:33:40;102136.00;;;15.50
19644;BMP180;9970;-36.854;174.870;2022-09-09T04:36:13;102134.00;;;15.50
19644;BMP180;9970;-36.854;174.870;2022-09-09T04:38:46;102138.00;;;15.50
19644;BMP180;9970;-36.854;174.870;2022-09-09T04:41:20;102131.00;;;15.50
19644;BMP180;9970;-36.854;174.870;2022-09-09T04:43:52;102136.00;;;15.40
19644;BMP180;9970;-36.854;174.870;2022-09-09T04:46:25;102143.00;;;15.40
19644;BMP180;9970;-36.854;174.870;2022-09-09T04:48:58;102130.00;;;15.40
19644;BMP180;9970;-36.854;174.870;2022-09-09T04:51:31;102145.00;;;15.40
19644;BMP180;9970;-36.854;174.870;2022-09-09T04:54:04;102137.00;;;15.40
19644;BMP180;9970;-36.854;174.870;2022-09-09T04:56:37;102134.00;;;15.40
19644;BMP180;9970;-36.854;174.870;2022-09-09T04:59:10;102139.00;;;15.40
19644;BMP180;9970;-36.854;174.870;2022-09-09T05:01:43;102133.00;;;15.40
19644;BMP180;9970;-36.854;174.870;2022-09-09T05:04:16;102132.00;;;15.40
19644;BMP180;9970;-36.854;174.870;2022-09-09T05:06:50;102132.00;;;15.40
19644;BMP180;9970;-36.854;174.870;2022-09-09T05:09:23;102146.00;;;15.30
19644;BMP180;9970;-36.854;174.870;2022-09-09T05:11:56;102134.00;;;15.30
19644;BMP180;9970;-36.854;174.870;2022-09-09T05:14:29;102138.00;;;15.30
19644;BMP180;9970;-36.854;174.870;2022-09-09T05:17:02;102137.00;;;15.30
19644;BMP180;9970;-36.854;174.870;2022-09-09T05:19:35;102139.00;;;15.30
19644;BMP180;9970;-36.854;174.870;2022-09-09T05:22:09;102148.00;;;15.30
19644;BMP180;9970;-36.854;174.870;2022-09-09T05:24:42;102148.00;;;15.20
19644;BMP180;9970;-36.854;174.870;2022-09-09T05:27:15;102142.00;;;15.30
19644;BMP180;9970;-36.854;174.870;2022-09-09T05:29:49;102140.00;;;15.20
19644;BMP180;9970;-36.854;174.870;2022-09-09T05:32:22;102147.00;;;15.20
19644;BMP180;9970;-36.854;174.870;2022-09-09T05:34:55;102156.00;;;15.20
19644;BMP180;9970;-36.854;174.870;2022-09-09T05:37:28;102149.00;;;15.20
19644;BMP180;9970;-36.854;174.870;2022-09-09T05:40:01;102150.00;;;15.20
19644;BMP180;9970;-36.854;174.870;2022-09-09T05:42:34;102150.00;;;15.20
19644;BMP180;9970;-36.854;174.870;2022-09-09T05:45:08;102152.00;;;15.20
19644;BMP180;9970;-36.854;174.870;2022-09-09T05:47:40;102147.00;;;15.20
19644;BMP180;9970;-36.854;174.870;2022-09-09T05:50:13;102157.00;;;15.20
19644;BMP180;9970;-36.854;174.870;2022-09-09T05:52:47;102152.00;;;15.20
19644;BMP180;9970;-36.854;174.870;2022-09-09T05:55:20;102152.00;;;15.20
19644;BMP180;9970;-36.854;174.870;2022-09-09T05:57:53;102156.00;;;15.20
19644;BMP180;9970;-36.854;174.870;2022-09-09T06:00:27;102148.00;;;15.20
19644;BMP180;9970;-36.854;174.870;2022-09-09T06:03:01;102155.00;;;15.10
19644;BMP180;9970;-36.854;174.870;2022-09-09T06:05:34;102163.00;;;15.20
19644;BMP180;9970;-36.854;174.870;2022-09-09T06:08:09;102155.00;;;15.10
19644;BMP180;9970;-36.854;174.870;2022-09-09T06:10:42;102152.00;;;15.10
19644;BMP180;9970;-36.854;174.870;2022-09-09T06:13:15;102161.00;;;15.10
19644;BMP180;9970;-36.854;174.870;2022-09-09T06:15:53;102169.00;;;15.10
19644;BMP180;9970;-36.854;174.870;2022-09-09T06:18:27;102166.00;;;15.10
19644;BMP180;9970;-36.854;174.870;2022-09-09T06:21:04;102169.00;;;15.00
19644;BMP180;9970;-36.854;174.870;2022-09-09T06:23:38;102168.00;;;15.00
19644;BMP180;9970;-36.854;174.870;2022-09-09T06:26:25;102174.00;;;14.90
19644;BMP180;9970;-36.854;174.870;2022-09-09T06:28:50;102174.00;;;14.90
19644;BMP180;9970;-36.854;174.870;2022-09-09T06:31:25;102179.00;;;14.90
19644;BMP180;9970;-36.854;174.870;2022-09-09T06:34:00;102183.00;;;14.90
19644;BMP180;9970;-36.854;174.870;2022-09-09T06:36:38;102181.00;;;14.90
19644;BMP180;9970;-36.854;174.870;2022-09-09T06:39:07;102189.00;;;14.90
19644;BMP180;9970;-36.854;174.870;2022-09-09T06:41:43;102182.00;;;14.80
19644;BMP180;9970;-36.854;174.870;2022-09-09T06:44:16;102187.00;;;14.80
19644;BMP180;9970;-36.854;174.870;2022-09-09T06:46:52;102190.00;;;14.80
19644;BMP180;9970;-36.854;174.870;2022-09-09T06:49:24;102178.00;;;14.80
19644;BMP180;9970;-36.854;174.870;2022-09-09T06:51:57;102191.00;;;14.80
19644;BMP180;9970;-36.854;174.870;2022-09-09T06:54:30;102181.00;;;14.80
19644;BMP180;9970;-36.854;174.870;2022-09-09T06:57:03;102188.00;;;14.70
19644;BMP180;9970;-36.854;174.870;2022-09-09T06:59:38;102189.00;;;14.70
19644;BMP180;9970;-36.854;174.870;2022-09-09T07:02:12;102190.00;;;14.70
19644;BMP180;9970;-36.854;174.870;2022-09-09T07:04:45;102187.00;;;14.60
19644;BMP180;9970;-36.854;174.870;2022-09-09T07:07:17;102192.00;;;14.60
19644;BMP180;9970;-36.854;174.870;2022-09-09T07:09:50;102189.00;;;14.60
19644;BMP180;9970;-36.854;174.870;2022-09-09T07:12:23;102194.00;;;14.50
19644;BMP180;9970;-36.854;174.870;2022-09-09T07:14:56;102191.00;;;14.50
19644;BMP180;9970;-36.854;174.870;2022-09-09T07:17:28;102186.00;;;14.50
19644;BMP180;9970;-36.854;174.870;2022-09-09T07:20:02;102197.00;;;14.50
19644;BMP180;9970;-36.854;174.870;2022-09-09T07:22:38;102191.00;;;14.50
19644;BMP180;9970;-36.854;174.870;2022-09-09T07:25:10;102192.00;;;14.50
19644;BMP180;9970;-36.854;174.870;2022-09-09T07:27:43;102206.00;;;14.40
19644;BMP180;9970;-36.854;174.870;2022-09-09T07:30:16;102198.00;;;14.40
19644;BMP180;9970;-36.854;174.870;2022-09-09T07:32:52;102207.00;;;14.40
19644;BMP180;9970;-36.854;174.870;2022-09-09T07:35:25;102212.00;;;14.40
19644;BMP180;9970;-36.854;174.870;2022-09-09T07:38:01;102218.00;;;14.50
19644;BMP180;9970;-36.854;174.870;2022-09-09T07:40:36;102219.00;;;14.50
19644;BMP180;9970;-36.854;174.870;2022-09-09T07:43:09;102206.00;;;14.50
19644;BMP180;9970;-36.854;174.870;2022-09-09T07:45:43;102215.00;;;14.50
19644;BMP180;9970;-36.854;174.870;2022-09-09T07:48:16;102212.00;;;14.50
19644;BMP180;9970;-36.854;174.870;2022-09-09T07:50:48;102213.00;;;14.50
19644;BMP180;9970;-36.854;174.870;2022-09-09T07:53:22;102219.00;;;14.50
19644;BMP180;9970;-36.854;174.870;2022-09-09T07:55:54;102215.00;;;14.50
19644;BMP180;9970;-36.854;174.870;2022-09-09T07:58:27;102224.00;;;14.50
19644;BMP180;9970;-36.854;174.870;2022-09-09T08:01:07;102223.00;;;14.50
19644;BMP180;9970;-36.854;174.870;2022-09-09T08:03:40;102219.00;;;14.50
19644;BMP180;9970;-36.854;174.870;2022-09-09T08:06:13;102225.00;;;14.50
19644;BMP180;9970;-36.854;174.870;2022-09-09T08:08:49;102223.00;;;14.50
19644;BMP180;9970;-36.854;174.870;2022-09-09T08:11:22;102219.00;;;14.50
19644;BMP180;9970;-36.854;174.870;2022-09-09T08:13:57;102218.00;;;14.50
19644;BMP180;9970;-36.854;174.870;2022-09-09T08:16:32;102225.00;;;14.50
19644;BMP180;9970;-36.854;174.870;2022-09-09T08:19:07;102218.00;;;14.50
19644;BMP180;9970;-36.854;174.870;2022-09-09T08:21:42;102214.00;;;14.50
19644;BMP180;9970;-36.854;174.870;2022-09-09T08:24:15;102208.00;;;14.40
19644;BMP180;9970;-36.854;174.870;2022-09-09T08:26:49;102215.00;;;14.40
19644;BMP180;9970;-36.854;174.870;2022-09-09T08:29:22;102211.00;;;14.40
19644;BMP180;9970;-36.854;174.870;2022-09-09T08:32:00;102215.00;;;14.40
19644;BMP180;9970;-36.854;174.870;2022-09-09T08:34:33;102213.00;;;14.40
19644;BMP180;9970;-36.854;174.870;2022-09-09T08:37:08;102213.00;;;14.40
19644;BMP180;9970;-36.854;174.870;2022-09-09T08:39:41;102223.00;;;14.40
19644;BMP180;9970;-36.854;174.870;2022-09-09T08:42:17;102215.00;;;14.40
19644;BMP180;9970;-36.854;174.870;2022-09-09T08:48:12;102217.00;;;14.40
19644;BMP180;9970;-36.854;174.870;2022-09-09T08:50:44;102222.00;;;14.40
19644;BMP180;9970;-36.854;174.870;2022-09-09T08:53:30;102237.00;;;14.30
19644;BMP180;9970;-36.854;174.870;2022-09-09T08:56:01;102237.00;;;14.30
19644;BMP180;9970;-36.854;174.870;2022-09-09T08:58:38;102235.00;;;14.30
19644;BMP180;9970;-36.854;174.870;2022-09-09T09:01:16;102238.00;;;14.30
19644;BMP180;9970;-36.854;174.870;2022-09-09T09:06:50;102239.00;;;14.30
19644;BMP180;9970;-36.854;174.870;2022-09-09T09:09:26;102239.00;;;14.20
19644;BMP180;9970;-36.854;174.870;2022-09-09T09:12:02;102231.00;;;14.20
19644;BMP180;9970;-36.854;174.870;2022-09-09T09:14:37;102236.00;;;14.20
19644;BMP180;9970;-36.854;174.870;2022-09-09T09:17:12;102237.00;;;14.20
19644;BMP180;9970;-36.854;174.870;2022-09-09T09:19:47;102226.00;;;14.20
19644;BMP180;9970;-36.854;174.870;2022-09-09T09:22:26;102244.00;;;14.20
19644;BMP180;9970;-36.854;174.870;2022-09-09T09:30:18;102244.00;;;14.20
19644;BMP180;9970;-36.854;174.870;2022-09-09T09:33:08;102249.00;;;14.10
19644;BMP180;9970;-36.854;174.870;2022-09-09T09:35:40;102250.00;;;14.10
19644;BMP180;9970;-36.854;174.870;2022-09-09T09:38:19;102248.00;;;14.10
19644;BMP180;9970;-36.854;174.870;2022-09-09T09:40:56;102259.00;;;14.10
19644;BMP180;9970;-36.854;174.870;2022-09-09T09:43:33;102253.00;;;14.10
19644;BMP180;9970;-36.854;174.870;2022-09-09T09:46:21;102251.00;;;14.10
19644;BMP180;9970;-36.854;174.870;2022-09-09T09:49:04;102255.00;;;14.10
19644;BMP180;9970;-36.854;174.870;2022-09-09T09:51:41;102247.00;;;14.00
19644;BMP180;9970;-36.854;174.870;2022-09-09T09:54:37;102251.00;;;14.10
19644;BMP180;9970;-36.854;174.870;2022-09-09T09:57:12;102253.00;;;14.00
19644;BMP180;9970;-36.854;174.870;2022-09-09T09:59:47;102248.00;;;14.00
19644;BMP180;9970;-36.854;174.870;2022-09-09T10:02:25;102254.00;;;14.00
19644;BMP180;9970;-36.854;174.870;2022-09-09T10:05:19;102253.00;;;14.00
19644;BMP180;9970;-36.854;174.870;2022-09-09T10:08:10;102249.00;;;14.00
19644;BMP180;9970;-36.854;174.870;2022-09-09T10:10:56;102240.00;;;14.00
19644;BMP180;9970;-36.854;174.870;2022-09-09T10:13:39;102246.00;;;14.00
19644;BMP180;9970;-36.854;174.870;2022-09-09T10:16:21;102227.00;;;13.90
19644;BMP180;9970;-36.854;174.870;2022-09-09T10:22:18;102247.00;;;13.90
19644;BMP180;9970;-36.854;174.870;2022-09-09T10:30:47;102234.00;;;13.90
19644;BMP180;9970;-36.854;174.870;2022-09-09T10:33:04;102231.00;;;13.90
19644;BMP180;9970;-36.854;174.870;2022-09-09T10:35:43;102238.00;;;13.80
19644;BMP180;9970;-36.854;174.870;2022-09-09T10:38:24;102239.00;;;13.90
19644;BMP180;9970;-36.854;174.870;2022-09-09T10:49:56;102218.00;;;13.80
19644;BMP180;9970;-36.854;174.870;2022-09-09T10:52:48;102212.00;;;13.80
19644;BMP180;9970;-36.854;174.870;2022-09-09T10:55:20;102218.00;;;13.80
19644;BMP180;9970;-36.854;174.870;2022-09-09T10:57:57;102212.00;;;13.80
19644;BMP180;9970;-36.854;174.870;2022-09-09T11:00:44;102215.00;;;13.80
19644;BMP180;9970;-36.854;174.870;2022-09-09T11:03:27;102210.00;;;13.70
19644;BMP180;9970;-36.854;174.870;2022-09-09T11:06:06;102217.00;;;13.70
19644;BMP180;9970;-36.854;174.870;2022-09-09T11:08:40;102214.00;;;13.70
19644;BMP180;9970;-36.854;174.870;2022-09-09T11:16:50;102201.00;;;13.70
19644;BMP180;9970;-36.854;174.870;2022-09-09T11:19:41;102204.00;;;13.70
19644;BMP180;9970;-36.854;174.870;2022-09-09T11:22:40;102206.00;;;13.60
19644;BMP180;9970;-36.854;174.870;2022-09-09T11:25:25;102202.00;;;13.60
19644;BMP180;9970;-36.854;174.870;2022-09-09T11:31:21;102200.00;;;13.50
19644;BMP180;9970;-36.854;174.870;2022-09-09T11:37:15;102200.00;;;13.50
19644;BMP180;9970;-36.854;174.870;2022-09-09T11:40:08;102190.00;;;13.50
19644;BMP180;9970;-36.854;174.870;2022-09-09T11:42:41;102181.00;;;13.40
19644;BMP180;9970;-36.854;174.870;2022-09-09T11:45:24;102196.00;;;13.40
19644;BMP180;9970;-36.854;174.870;2022-09-09T11:48:00;102197.00;;;13.40
19644;BMP180;9970;-36.854;174.870;2022-09-09T11:50:38;102197.00;;;13.40
19644;BMP180;9970;-36.854;174.870;2022-09-09T11:53:23;102193.00;;;13.40
19644;BMP180;9970;-36.854;174.870;2022-09-09T11:56:07;102191.00;;;13.40
19644;BMP180;9970;-36.854;174.870;2022-09-09T11:58:56;102197.00;;;13.30
19644;BMP180;9970;-36.854;174.870;2022-09-09T12:01:45;102192.00;;;13.30
19644;BMP180;9970;-36.854;174.870;2022-09-09T12:04:40;102191.00;;;13.30
19644;BMP180;9970;-36.854;174.870;2022-09-09T12:07:00;102189.00;;;13.30
19644;BMP180;9970;-36.854;174.870;2022-09-09T12:09:43;102190.00;;;13.30
19644;BMP180;9970;-36.854;174.870;2022-09-09T12:12:27;102194.00;;;13.30
19644;BMP180;9970;-36.854;174.870;2022-09-09T12:17:48;102186.00;;;13.30
19644;BMP180;9970;-36.854;174.870;2022-09-09T12:20:23;102181.00;;;13.20
19644;BMP180;9970;-36.854;174.870;2022-09-09T12:26:03;102191.00;;;13.20
19644;BMP180;9970;-36.854;174.870;2022-09-09T12:31:28;102186.00;;;13.10
19644;BMP180;9970;-36.854;174.870;2022-09-09T12:37:08;102180.00;;;13.00
19644;BMP180;9970;-36.854;174.870;2022-09-09T12:39:37;102189.00;;;13.00
19644;BMP180;9970;-36.854;174.870;2022-09-09T12:42:20;102181.00;;;13.00
19644;BMP180;9970;-36.854;174.870;2022-09-09T12:44:57;102184.00;;;13.00
19644;BMP180;9970;-36.854;174.870;2022-09-09T12:47:51;102175.00;;;13.00
19644;BMP180;9970;-36.854;174.870;2022-09-09T12:50:21;102181.00;;;13.00
19644;BMP180;9970;-36.854;174.870;2022-09-09T12:53:13;102180.00;;;13.00
19644;BMP180;9970;-36.854;174.870;2022-09-09T12:55:55;102169.00;;;12.90
19644;BMP180;9970;-36.854;174.870;2022-09-09T12:58:27;102172.00;;;12.90
19644;BMP180;9970;-36.854;174.870;2022-09-09T13:01:04;102169.00;;;12.90
19644;BMP180;9970;-36.854;174.870;2022-09-09T13:03:46;102172.00;;;12.90
19644;BMP180;9970;-36.854;174.870;2022-09-09T13:06:21;102175.00;;;12.90
19644;BMP180;9970;-36.854;174.870;2022-09-09T13:08:58;102170.00;;;12.90
19644;BMP180;9970;-36.854;174.870;2022-09-09T13:11:41;102167.00;;;12.80
19644;BMP180;9970;-36.854;174.870;2022-09-09T13:14:28;102163.00;;;12.80
19644;BMP180;9970;-36.854;174.870;2022-09-09T13:17:01;102165.00;;;12.80
19644;BMP180;9970;-36.854;174.870;2022-09-09T13:19:38;102165.00;;;12.80
19644;BMP180;9970;-36.854;174.870;2022-09-09T13:28:02;102158.00;;;12.80
19644;BMP180;9970;-36.854;174.870;2022-09-09T13:30:36;102158.00;;;12.70
19644;BMP180;9970;-36.854;174.870;2022-09-09T13:35:50;102152.00;;;12.70
19644;BMP180;9970;-36.854;174.870;2022-09-09T13:38:24;102158.00;;;12.60
19644;BMP180;9970;-36.854;174.870;2022-09-09T13:41:02;102150.00;;;12.60
19644;BMP180;9970;-36.854;174.870;2022-09-09T13:43:43;102149.00;;;12.60
19644;BMP180;9970;-36.854;174.870;2022-09-09T13:46:35;102145.00;;;12.60
19644;BMP180;9970;-36.854;174.870;2022-09-09T13:51:49;102145.00;;;12.60
19644;BMP180;9970;-36.854;174.870;2022-09-09T13:54:22;102138.00;;;12.60
19644;BMP180;9970;-36.854;174.870;2022-09-09T13:56:54;102132.00;;;12.60
19644;BMP180;9970;-36.854;174.870;2022-09-09T13:59:27;102130.00;;;12.60
19644;BMP180;9970;-36.854;174.870;2022-09-09T14:02:01;102121.00;;;12.50
19644;BMP180;9970;-36.854;174.870;2022-09-09T14:04:34;102122.00;;;12.50
19644;BMP180;9970;-36.854;174.870;2022-09-09T14:07:15;102116.00;;;12.50
19644;BMP180;9970;-36.854;174.870;2022-09-09T14:09:48;102110.00;;;12.50
19644;BMP180;9970;-36.854;174.870;2022-09-09T14:12:23;102107.00;;;12.50
19644;BMP180;9970;-36.854;174.870;2022-09-09T14:14:56;102099.00;;;12.40
19644;BMP180;9970;-36.854;174.870;2022-09-09T14:17:30;102097.00;;;12.40
19644;BMP180;9970;-36.854;174.870;2022-09-09T14:20:04;102094.00;;;12.40
19644;BMP180;9970;-36.854;174.870;2022-09-09T14:22:38;102091.00;;;12.40
19644;BMP180;9970;-36.854;174.870;2022-09-09T14:25:11;102087.00;;;12.40
19644;BMP180;9970;-36.854;174.870;2022-09-09T14:27:47;102081.00;;;12.40
19644;BMP180;9970;-36.854;174.870;2022-09-09T14:30:22;102077.00;;;12.30
19644;BMP180;9970;-36.854;174.870;2022-09-09T14:32:59;102075.00;;;12.30
19644;BMP180;9970;-36.854;174.870;2022-09-09T14:35:32;102072.00;;;12.30
19644;BMP180;9970;-36.854;174.870;2022-09-09T14:38:05;102071.00;;;12.30
19644;BMP180;9970;-36.854;174.870;2022-09-09T14:40:39;102075.00;;;12.30
19644;BMP180;9970;-36.854;174.870;2022-09-09T14:43:12;102068.00;;;12.30
19644;BMP180;9970;-36.854;174.870;2022-09-09T14:45:45;102065.00;;;12.20
19644;BMP180;9970;-36.854;174.870;2022-09-09T14:48:19;102057.00;;;12.20
19644;BMP180;9970;-36.854;174.870;2022-09-09T14:50:52;102051.00;;;12.20
19644;BMP180;9970;-36.854;174.870;2022-09-09T14:53:26;102052.00;;;12.20
19644;BMP180;9970;-36.854;174.870;2022-09-09T14:56:13;102040.00;;;12.20
19644;BMP180;9970;-36.854;174.870;2022-09-09T14:58:46;102045.00;;;12.20
19644;BMP180;9970;-36.854;174.870;2022-09-09T15:01:19;102047.00;;;12.30
19644;BMP180;9970;-36.854;174.870;2022-09-09T15:03:59;102043.00;;;12.30
19644;BMP180;9970;-36.854;174.870;2022-09-09T15:06:30;102042.00;;;12.30
19644;BMP180;9970;-36.854;174.870;2022-09-09T15:09:06;102044.00;;;12.30
19644;BMP180;9970;-36.854;174.870;2022-09-09T15:11:40;102038.00;;;12.30
19644;BMP180;9970;-36.854;174.870;2022-09-09T15:14:17;102038.00;;;12.40
19644;BMP180;9970;-36.854;174.870;2022-09-09T15:16:51;102039.00;;;12.40
19644;BMP180;9970;-36.854;174.870;2022-09-09T15:19:24;102032.00;;;12.40
19644;BMP180;9970;-36.854;174.870;2022-09-09T15:21:57;102040.00;;;12.50
19644;BMP180;9970;-36.854;174.870;2022-09-09T15:24:31;102033.00;;;12.50
19644;BMP180;9970;-36.854;174.870;2022-09-09T15:27:04;102031.00;;;12.50
19644;BMP180;9970;-36.854;174.870;2022-09-09T15:29:39;102029.00;;;12.50
19644;BMP180;9970;-36.854;174.870;2022-09-09T15:32:12;102028.00;;;12.50
19644;BMP180;9970;-36.854;174.870;2022-09-09T15:34:45;102026.00;;;12.50
19644;BMP180;9970;-36.854;174.870;2022-09-09T15:37:18;102030.00;;;12.50
19644;BMP180;9970;-36.854;174.870;2022-09-09T15:39:51;102032.00;;;12.50
19644;BMP180;9970;-36.854;174.870;2022-09-09T15:42:24;102011.00;;;12.50
19644;BMP180;9970;-36.854;174.870;2022-09-09T15:44:57;102023.00;;;12.50
19644;BMP180;9970;-36.854;174.870;2022-09-09T15:47:30;102028.00;;;12.60
19644;BMP180;9970;-36.854;174.870;2022-09-09T15:50:04;102023.00;;;12.60
19644;BMP180;9970;-36.854;174.870;2022-09-09T15:52:37;102015.00;;;12.60
19644;BMP180;9970;-36.854;174.870;2022-09-09T15:55:10;102017.00;;;12.60